sensor_id;sensor_type;location;lat;lon;timestamp;P1;durP1;ratioP1;P2;durP2;ratioP2
45344;SDS011;31078;48.304;11.896;2022-09-21T00:01:24;11.27;;;3.90;;
45344;SDS011;31078;48.304;11.896;2022-09-21T00:03:52;11.65;;;3.83;;
45344;SDS011;31078;48.304;11.896;2022-09-21T00:06:20;12.98;;;4.20;;
45344;SDS011;31078;48.304;11.896;2022-09-21T00:08:47;14.23;;;4.40;;
45344;SDS011;31078;48.304;11.896;2022-09-21T00:11:16;11.68;;;3.58;;
45344;SDS011;31078;48.304;11.896;2022-09-21T00:13:44;12.60;;;3.80;;
45344;SDS011;31078;48.304;11.896;2022-09-21T00:16:14;14.25;;;4.38;;
45344;SDS011;31078;48.304;11.896;2022-09-21T00:18:41;22.55;;;5.00;;
45344;SDS011;31078;48.304;11.896;2022-09-21T00:21:12;10.73;;;3.50;;
45344;SDS011;31078;48.304;11.896;2022-09-21T00:23:39;9.77;;;3.40;;
45344;SDS011;31078;48.304;11.896;2022-09-21T00:26:09;11.75;;;3.65;;
45344;SDS011;31078;48.304;11.896;2022-09-21T00:28:38;11.05;;;3.47;;
45344;SDS011;31078;48.304;11.896;2022-09-21T00:31:06;10.95;;;3.50;;
45344;SDS011;31078;48.304;11.896;2022-09-21T00:33:33;10.88;;;3.45;;
45344;SDS011;31078;48.304;11.896;2022-09-21T00:36:03;12.10;;;3.70;;
45344;SDS011;31078;48.304;11.896;2022-09-21T00:38:31;11.90;;;3.90;;
45344;SDS011;31078;48.304;11.896;2022-09-21T00:40:58;10.75;;;3.58;;
45344;SDS011;31078;48.304;11.896;2022-09-21T00:43:25;11.27;;;3.70;;
45344;SDS011;31078;48.304;11.896;2022-09-21T00:45:54;7.45;;;2.90;;
45344;SDS011;31078;48.304;11.896;2022-09-21T00:48:25;11.40;;;3.35;;
45344;SDS011;31078;48.304;11.896;2022-09-21T00:50:52;8.77;;;3.25;;
45344;SDS011;31078;48.304;11.896;2022-09-21T00:53:22;14.70;;;3.92;;
45344;SDS011;31078;48.304;11.896;2022-09-21T00:55:49;10.02;;;3.47;;
45344;SDS011;31078;48.304;11.896;2022-09-21T00:58:21;10.88;;;3.45;;
45344;SDS011;31078;48.304;11.896;2022-09-21T01:00:51;12.48;;;3.92;;
45344;SDS011;31078;48.304;11.896;2022-09-21T01:03:20;14.30;;;3.72;;
45344;SDS011;31078;48.304;11.896;2022-09-21T01:05:46;10.60;;;3.35;;
45344;SDS011;31078;48.304;11.896;2022-09-21T01:08:13;12.00;;;3.47;;
45344;SDS011;31078;48.304;11.896;2022-09-21T01:10:45;7.63;;;2.63;;
45344;SDS011;31078;48.304;11.896;2022-09-21T01:13:33;12.05;;;3.40;;
45344;SDS011;31078;48.304;11.896;2022-09-21T01:16:11;14.98;;;3.95;;
45344;SDS011;31078;48.304;11.896;2022-09-21T01:18:44;14.82;;;3.45;;
45344;SDS011;31078;48.304;11.896;2022-09-21T01:21:19;13.48;;;3.72;;
45344;SDS011;31078;48.304;11.896;2022-09-21T01:23:54;11.35;;;3.22;;
45344;SDS011;31078;48.304;11.896;2022-09-21T01:26:47;16.52;;;3.75;;
45344;SDS011;31078;48.304;11.896;2022-09-21T01:29:26;11.48;;;3.00;;
45344;SDS011;31078;48.304;11.896;2022-09-21T01:31:59;14.35;;;3.72;;
45344;SDS011;31078;48.304;11.896;2022-09-21T01:34:32;10.32;;;3.22;;
45344;SDS011;31078;48.304;11.896;2022-09-21T01:37:05;11.50;;;3.40;;
45344;SDS011;31078;48.304;11.896;2022-09-21T01:39:35;12.43;;;3.30;;
45344;SDS011;31078;48.304;11.896;2022-09-21T01:42:05;14.02;;;3.92;;
45344;SDS011;31078;48.304;11.896;2022-09-21T01:44:34;10.45;;;3.10;;
45344;SDS011;31078;48.304;11.896;2022-09-21T01:47:06;12.48;;;3.25;;
45344;SDS011;31078;48.304;11.896;2022-09-21T01:49:37;10.82;;;3.03;;
45344;SDS011;31078;48.304;11.896;2022-09-21T01:52:09;12.25;;;3.25;;
45344;SDS011;31078;48.304;11.896;2022-09-21T01:57:10;13.63;;;3.58;;
45344;SDS011;31078;48.304;11.896;2022-09-21T01:59:45;11.50;;;3.10;;
45344;SDS011;31078;48.304;11.896;2022-09-21T02:02:16;12.02;;;3.25;;
45344;SDS011;31078;48.304;11.896;2022-09-21T02:04:47;11.13;;;3.13;;
45344;SDS011;31078;48.304;11.896;2022-09-21T02:07:14;19.92;;;4.20;;
45344;SDS011;31078;48.304;11.896;2022-09-21T02:09:42;12.63;;;3.25;;
45344;SDS011;31078;48.304;11.896;2022-09-21T02:12:08;13.77;;;3.22;;
45344;SDS011;31078;48.304;11.896;2022-09-21T02:14:35;15.05;;;3.20;;
45344;SDS011;31078;48.304;11.896;2022-09-21T02:17:08;12.07;;;3.53;;
45344;SDS011;31078;48.304;11.896;2022-09-21T02:19:49;11.90;;;3.78;;
45344;SDS011;31078;48.304;11.896;2022-09-21T02:22:23;11.45;;;3.33;;
45344;SDS011;31078;48.304;11.896;2022-09-21T02:25:00;13.65;;;3.90;;
45344;SDS011;31078;48.304;11.896;2022-09-21T02:27:33;10.52;;;3.42;;
45344;SDS011;31078;48.304;11.896;2022-09-21T02:30:04;10.77;;;3.35;;
45344;SDS011;31078;48.304;11.896;2022-09-21T02:32:36;6.93;;;2.53;;
45344;SDS011;31078;48.304;11.896;2022-09-21T02:35:15;6.25;;;2.83;;
45344;SDS011;31078;48.304;11.896;2022-09-21T02:37:51;6.82;;;2.58;;
45344;SDS011;31078;48.304;11.896;2022-09-21T02:40:29;8.38;;;2.70;;
45344;SDS011;31078;48.304;11.896;2022-09-21T02:43:00;8.50;;;3.30;;
45344;SDS011;31078;48.304;11.896;2022-09-21T02:45:31;11.65;;;3.60;;
45344;SDS011;31078;48.304;11.896;2022-09-21T02:48:04;7.97;;;3.00;;
45344;SDS011;31078;48.304;11.896;2022-09-21T02:50:38;10.23;;;3.58;;
45344;SDS011;31078;48.304;11.896;2022-09-21T02:53:09;6.28;;;2.88;;
45344;SDS011;31078;48.304;11.896;2022-09-21T02:55:38;10.75;;;3.58;;
45344;SDS011;31078;48.304;11.896;2022-09-21T02:58:06;6.93;;;3.10;;
45344;SDS011;31078;48.304;11.896;2022-09-21T03:00:37;9.57;;;3.45;;
45344;SDS011;31078;48.304;11.896;2022-09-21T03:03:14;10.82;;;2.78;;
45344;SDS011;31078;48.304;11.896;2022-09-21T03:05:42;9.40;;;2.93;;
45344;SDS011;31078;48.304;11.896;2022-09-21T03:08:09;11.32;;;3.72;;
45344;SDS011;31078;48.304;11.896;2022-09-21T03:10:36;10.45;;;3.55;;
45344;SDS011;31078;48.304;11.896;2022-09-21T03:13:03;11.13;;;3.58;;
45344;SDS011;31078;48.304;11.896;2022-09-21T03:15:30;9.55;;;3.47;;
45344;SDS011;31078;48.304;11.896;2022-09-21T03:17:56;8.95;;;3.08;;
45344;SDS011;31078;48.304;11.896;2022-09-21T03:20:24;10.70;;;3.70;;
45344;SDS011;31078;48.304;11.896;2022-09-21T03:22:52;8.85;;;3.10;;
45344;SDS011;31078;48.304;11.896;2022-09-21T03:25:20;8.25;;;3.65;;
45344;SDS011;31078;48.304;11.896;2022-09-21T03:27:48;9.68;;;3.50;;
45344;SDS011;31078;48.304;11.896;2022-09-21T03:30:18;12.57;;;3.85;;
45344;SDS011;31078;48.304;11.896;2022-09-21T03:32:44;9.95;;;3.17;;
45344;SDS011;31078;48.304;11.896;2022-09-21T03:35:11;13.75;;;3.97;;
45344;SDS011;31078;48.304;11.896;2022-09-21T03:37:39;9.05;;;3.15;;
45344;SDS011;31078;48.304;11.896;2022-09-21T03:40:06;11.77;;;3.70;;
45344;SDS011;31078;48.304;11.896;2022-09-21T03:42:33;13.90;;;3.78;;
45344;SDS011;31078;48.304;11.896;2022-09-21T03:45:00;10.23;;;3.30;;
45344;SDS011;31078;48.304;11.896;2022-09-21T03:47:26;15.52;;;4.10;;
45344;SDS011;31078;48.304;11.896;2022-09-21T03:49:53;11.82;;;3.55;;
45344;SDS011;31078;48.304;11.896;2022-09-21T03:52:20;12.35;;;3.00;;
45344;SDS011;31078;48.304;11.896;2022-09-21T03:54:48;10.27;;;3.10;;
45344;SDS011;31078;48.304;11.896;2022-09-21T03:57:14;8.20;;;3.17;;
45344;SDS011;31078;48.304;11.896;2022-09-21T03:59:41;8.98;;;2.90;;
45344;SDS011;31078;48.304;11.896;2022-09-21T04:02:07;10.80;;;3.28;;
45344;SDS011;31078;48.304;11.896;2022-09-21T04:04:34;12.43;;;3.30;;
45344;SDS011;31078;48.304;11.896;2022-09-21T04:07:01;17.17;;;4.45;;
45344;SDS011;31078;48.304;11.896;2022-09-21T04:09:27;11.27;;;3.45;;
45344;SDS011;31078;48.304;11.896;2022-09-21T04:11:55;10.07;;;3.58;;
45344;SDS011;31078;48.304;11.896;2022-09-21T04:14:21;14.20;;;3.72;;
45344;SDS011;31078;48.304;11.896;2022-09-21T04:16:48;15.82;;;3.55;;
45344;SDS011;31078;48.304;11.896;2022-09-21T04:19:16;13.88;;;3.47;;
45344;SDS011;31078;48.304;11.896;2022-09-21T04:21:42;12.38;;;3.15;;
45344;SDS011;31078;48.304;11.896;2022-09-21T04:24:09;14.60;;;3.78;;
45344;SDS011;31078;48.304;11.896;2022-09-21T04:26:36;8.35;;;3.33;;
45344;SDS011;31078;48.304;11.896;2022-09-21T04:29:04;8.75;;;3.10;;
45344;SDS011;31078;48.304;11.896;2022-09-21T04:31:33;10.32;;;3.25;;
45344;SDS011;31078;48.304;11.896;2022-09-21T04:34:00;8.20;;;2.90;;
45344;SDS011;31078;48.304;11.896;2022-09-21T04:36:27;14.27;;;3.63;;
45344;SDS011;31078;48.304;11.896;2022-09-21T04:38:56;13.15;;;3.53;;
45344;SDS011;31078;48.304;11.896;2022-09-21T04:41:23;10.45;;;3.17;;
45344;SDS011;31078;48.304;11.896;2022-09-21T04:43:49;7.75;;;2.45;;
45344;SDS011;31078;48.304;11.896;2022-09-21T04:46:17;12.20;;;3.20;;
45344;SDS011;31078;48.304;11.896;2022-09-21T04:48:45;18.75;;;3.60;;
45344;SDS011;31078;48.304;11.896;2022-09-21T04:51:15;11.80;;;3.40;;
45344;SDS011;31078;48.304;11.896;2022-09-21T04:53:42;12.98;;;3.10;;
45344;SDS011;31078;48.304;11.896;2022-09-21T04:56:11;11.55;;;3.65;;
45344;SDS011;31078;48.304;11.896;2022-09-21T04:58:39;13.27;;;3.40;;
45344;SDS011;31078;48.304;11.896;2022-09-21T05:01:06;13.32;;;3.20;;
45344;SDS011;31078;48.304;11.896;2022-09-21T05:03:34;10.48;;;3.00;;
45344;SDS011;31078;48.304;11.896;2022-09-21T05:06:04;8.05;;;2.78;;
45344;SDS011;31078;48.304;11.896;2022-09-21T05:08:31;14.95;;;4.03;;
45344;SDS011;31078;48.304;11.896;2022-09-21T05:11:16;8.68;;;3.10;;
45344;SDS011;31078;48.304;11.896;2022-09-21T05:13:43;11.25;;;3.17;;
45344;SDS011;31078;48.304;11.896;2022-09-21T05:16:10;12.95;;;3.05;;
45344;SDS011;31078;48.304;11.896;2022-09-21T05:18:38;15.10;;;3.67;;
45344;SDS011;31078;48.304;11.896;2022-09-21T05:21:05;13.05;;;3.50;;
45344;SDS011;31078;48.304;11.896;2022-09-21T05:23:32;12.80;;;3.70;;
45344;SDS011;31078;48.304;11.896;2022-09-21T05:26:02;8.65;;;3.03;;
45344;SDS011;31078;48.304;11.896;2022-09-21T05:28:29;14.95;;;4.28;;
45344;SDS011;31078;48.304;11.896;2022-09-21T05:30:57;9.13;;;3.40;;
45344;SDS011;31078;48.304;11.896;2022-09-21T05:33:28;8.55;;;3.03;;
45344;SDS011;31078;48.304;11.896;2022-09-21T05:36:02;8.55;;;3.28;;
45344;SDS011;31078;48.304;11.896;2022-09-21T05:38:41;10.55;;;3.30;;
45344;SDS011;31078;48.304;11.896;2022-09-21T05:41:08;13.27;;;3.38;;
45344;SDS011;31078;48.304;11.896;2022-09-21T05:43:35;9.57;;;3.22;;
45344;SDS011;31078;48.304;11.896;2022-09-21T05:46:03;9.63;;;3.22;;
45344;SDS011;31078;48.304;11.896;2022-09-21T05:48:39;15.18;;;3.85;;
45344;SDS011;31078;48.304;11.896;2022-09-21T05:51:11;8.50;;;3.10;;
45344;SDS011;31078;48.304;11.896;2022-09-21T05:53:48;8.57;;;2.92;;
45344;SDS011;31078;48.304;11.896;2022-09-21T05:56:23;13.82;;;4.00;;
45344;SDS011;31078;48.304;11.896;2022-09-21T05:59:01;11.43;;;3.67;;
45344;SDS011;31078;48.304;11.896;2022-09-21T06:01:40;12.57;;;3.70;;
45344;SDS011;31078;48.304;11.896;2022-09-21T06:04:16;12.35;;;4.10;;
45344;SDS011;31078;48.304;11.896;2022-09-21T06:06:44;8.68;;;3.60;;
45344;SDS011;31078;48.304;11.896;2022-09-21T06:09:11;10.45;;;3.63;;
45344;SDS011;31078;48.304;11.896;2022-09-21T06:11:37;12.65;;;3.88;;
45344;SDS011;31078;48.304;11.896;2022-09-21T06:14:04;11.32;;;3.55;;
45344;SDS011;31078;48.304;11.896;2022-09-21T06:16:35;10.43;;;3.78;;
45344;SDS011;31078;48.304;11.896;2022-09-21T06:19:03;11.52;;;3.65;;
45344;SDS011;31078;48.304;11.896;2022-09-21T06:21:32;12.95;;;4.40;;
45344;SDS011;31078;48.304;11.896;2022-09-21T06:24:00;10.15;;;3.88;;
45344;SDS011;31078;48.304;11.896;2022-09-21T06:26:27;14.40;;;5.00;;
45344;SDS011;31078;48.304;11.896;2022-09-21T06:28:54;13.52;;;4.60;;
45344;SDS011;31078;48.304;11.896;2022-09-21T06:31:20;17.17;;;5.95;;
45344;SDS011;31078;48.304;11.896;2022-09-21T06:33:47;11.73;;;4.80;;
45344;SDS011;31078;48.304;11.896;2022-09-21T06:36:13;16.33;;;5.40;;
45344;SDS011;31078;48.304;11.896;2022-09-21T06:38:41;20.50;;;6.45;;
45344;SDS011;31078;48.304;11.896;2022-09-21T06:41:09;20.00;;;6.75;;
45344;SDS011;31078;48.304;11.896;2022-09-21T06:43:36;20.20;;;6.25;;
45344;SDS011;31078;48.304;11.896;2022-09-21T06:46:03;23.63;;;6.43;;
45344;SDS011;31078;48.304;11.896;2022-09-21T06:48:29;19.30;;;6.85;;
45344;SDS011;31078;48.304;11.896;2022-09-21T06:50:58;14.27;;;5.70;;
45344;SDS011;31078;48.304;11.896;2022-09-21T06:53:25;16.95;;;5.60;;
45344;SDS011;31078;48.304;11.896;2022-09-21T06:55:52;16.10;;;5.68;;
45344;SDS011;31078;48.304;11.896;2022-09-21T06:58:26;17.23;;;6.40;;
45344;SDS011;31078;48.304;11.896;2022-09-21T07:00:54;22.52;;;7.40;;
45344;SDS011;31078;48.304;11.896;2022-09-21T07:03:21;17.50;;;6.50;;
45344;SDS011;31078;48.304;11.896;2022-09-21T07:05:47;14.65;;;5.35;;
45344;SDS011;31078;48.304;11.896;2022-09-21T07:08:15;15.50;;;5.70;;
45344;SDS011;31078;48.304;11.896;2022-09-21T07:10:42;11.20;;;4.82;;
45344;SDS011;31078;48.304;11.896;2022-09-21T07:13:08;12.82;;;4.50;;
45344;SDS011;31078;48.304;11.896;2022-09-21T07:15:36;12.13;;;4.65;;
45344;SDS011;31078;48.304;11.896;2022-09-21T07:18:09;10.52;;;4.57;;
45344;SDS011;31078;48.304;11.896;2022-09-21T07:20:36;16.67;;;5.82;;
45344;SDS011;31078;48.304;11.896;2022-09-21T07:23:08;9.90;;;4.15;;
45344;SDS011;31078;48.304;11.896;2022-09-21T07:25:35;9.13;;;4.80;;
45344;SDS011;31078;48.304;11.896;2022-09-21T07:28:01;9.82;;;4.30;;
45344;SDS011;31078;48.304;11.896;2022-09-21T07:30:28;9.48;;;4.00;;
45344;SDS011;31078;48.304;11.896;2022-09-21T07:32:56;12.00;;;3.97;;
45344;SDS011;31078;48.304;11.896;2022-09-21T07:35:23;13.40;;;4.78;;
45344;SDS011;31078;48.304;11.896;2022-09-21T07:37:50;12.77;;;3.88;;
45344;SDS011;31078;48.304;11.896;2022-09-21T07:40:16;16.65;;;4.53;;
45344;SDS011;31078;48.304;11.896;2022-09-21T07:42:43;9.18;;;3.17;;
45344;SDS011;31078;48.304;11.896;2022-09-21T07:45:10;11.07;;;3.50;;
45344;SDS011;31078;48.304;11.896;2022-09-21T07:47:36;10.40;;;3.53;;
45344;SDS011;31078;48.304;11.896;2022-09-21T07:50:05;10.50;;;3.65;;
45344;SDS011;31078;48.304;11.896;2022-09-21T07:52:32;12.65;;;4.03;;
45344;SDS011;31078;48.304;11.896;2022-09-21T07:54:59;11.30;;;3.65;;
45344;SDS011;31078;48.304;11.896;2022-09-21T07:57:25;8.85;;;3.35;;
45344;SDS011;31078;48.304;11.896;2022-09-21T08:00:10;11.27;;;3.65;;
45344;SDS011;31078;48.304;11.896;2022-09-21T08:02:37;11.52;;;3.30;;
45344;SDS011;31078;48.304;11.896;2022-09-21T08:05:06;8.77;;;2.92;;
45344;SDS011;31078;48.304;11.896;2022-09-21T08:07:33;7.18;;;2.50;;
45344;SDS011;31078;48.304;11.896;2022-09-21T08:10:01;9.40;;;2.80;;
45344;SDS011;31078;48.304;11.896;2022-09-21T08:12:27;10.70;;;2.88;;
45344;SDS011;31078;48.304;11.896;2022-09-21T08:14:54;9.80;;;2.65;;
45344;SDS011;31078;48.304;11.896;2022-09-21T08:17:20;8.77;;;2.97;;
45344;SDS011;31078;48.304;11.896;2022-09-21T08:19:48;10.02;;;3.00;;
45344;SDS011;31078;48.304;11.896;2022-09-21T08:22:16;7.47;;;2.65;;
45344;SDS011;31078;48.304;11.896;2022-09-21T08:24:43;7.72;;;2.35;;
45344;SDS011;31078;48.304;11.896;2022-09-21T08:27:10;9.27;;;2.90;;
45344;SDS011;31078;48.304;11.896;2022-09-21T08:29:37;9.55;;;2.97;;
45344;SDS011;31078;48.304;11.896;2022-09-21T08:32:04;10.48;;;2.88;;
45344;SDS011;31078;48.304;11.896;2022-09-21T08:34:31;8.43;;;2.60;;
45344;SDS011;31078;48.304;11.896;2022-09-21T08:36:58;6.78;;;2.30;;
45344;SDS011;31078;48.304;11.896;2022-09-21T08:39:26;10.95;;;3.20;;
45344;SDS011;31078;48.304;11.896;2022-09-21T08:42:04;6.40;;;2.47;;
45344;SDS011;31078;48.304;11.896;2022-09-21T08:44:40;8.23;;;2.70;;
45344;SDS011;31078;48.304;11.896;2022-09-21T08:47:11;17.02;;;4.22;;
45344;SDS011;31078;48.304;11.896;2022-09-21T08:49:40;8.05;;;2.67;;
45344;SDS011;31078;48.304;11.896;2022-09-21T08:52:13;9.55;;;2.53;;
45344;SDS011;31078;48.304;11.896;2022-09-21T08:54:46;7.50;;;2.28;;
45344;SDS011;31078;48.304;11.896;2022-09-21T08:57:18;9.25;;;2.30;;
45344;SDS011;31078;48.304;11.896;2022-09-21T08:59:46;8.13;;;2.42;;
45344;SDS011;31078;48.304;11.896;2022-09-21T09:02:27;13.77;;;3.25;;
45344;SDS011;31078;48.304;11.896;2022-09-21T09:05:12;12.38;;;2.85;;
45344;SDS011;31078;48.304;11.896;2022-09-21T09:10:40;12.98;;;3.22;;
45344;SDS011;31078;48.304;11.896;2022-09-21T09:13:36;13.55;;;3.05;;
45344;SDS011;31078;48.304;11.896;2022-09-21T09:16:19;12.43;;;3.00;;
45344;SDS011;31078;48.304;11.896;2022-09-21T09:18:53;12.15;;;2.75;;
45344;SDS011;31078;48.304;11.896;2022-09-21T09:21:25;9.90;;;2.53;;
45344;SDS011;31078;48.304;11.896;2022-09-21T09:26:31;11.82;;;2.33;;
45344;SDS011;31078;48.304;11.896;2022-09-21T09:29:10;13.32;;;2.85;;
45344;SDS011;31078;48.304;11.896;2022-09-21T09:31:41;7.82;;;2.10;;
45344;SDS011;31078;48.304;11.896;2022-09-21T09:34:10;11.00;;;2.75;;
45344;SDS011;31078;48.304;11.896;2022-09-21T09:36:43;9.88;;;2.45;;
45344;SDS011;31078;48.304;11.896;2022-09-21T09:39:12;12.55;;;2.83;;
45344;SDS011;31078;48.304;11.896;2022-09-21T09:41:49;10.57;;;3.05;;
45344;SDS011;31078;48.304;11.896;2022-09-21T09:44:33;10.65;;;2.47;;
45344;SDS011;31078;48.304;11.896;2022-09-21T09:47:14;9.75;;;2.50;;
45344;SDS011;31078;48.304;11.896;2022-09-21T09:49:53;7.53;;;1.98;;
45344;SDS011;31078;48.304;11.896;2022-09-21T09:52:27;10.30;;;2.40;;
45344;SDS011;31078;48.304;11.896;2022-09-21T09:54:54;16.08;;;2.65;;
45344;SDS011;31078;48.304;11.896;2022-09-21T09:57:25;12.55;;;2.42;;
45344;SDS011;31078;48.304;11.896;2022-09-21T09:59:54;10.40;;;2.25;;
45344;SDS011;31078;48.304;11.896;2022-09-21T10:02:25;8.63;;;2.08;;
45344;SDS011;31078;48.304;11.896;2022-09-21T10:04:53;7.65;;;1.90;;
45344;SDS011;31078;48.304;11.896;2022-09-21T10:07:37;9.10;;;2.00;;
45344;SDS011;31078;48.304;11.896;2022-09-21T10:10:30;12.30;;;2.42;;
45344;SDS011;31078;48.304;11.896;2022-09-21T10:13:10;8.48;;;1.90;;
45344;SDS011;31078;48.304;11.896;2022-09-21T10:15:40;7.80;;;1.73;;
45344;SDS011;31078;48.304;11.896;2022-09-21T10:18:14;16.50;;;3.00;;
45344;SDS011;31078;48.304;11.896;2022-09-21T10:20:51;8.23;;;1.45;;
45344;SDS011;31078;48.304;11.896;2022-09-21T10:23:21;16.52;;;2.80;;
45344;SDS011;31078;48.304;11.896;2022-09-21T10:25:52;15.93;;;3.10;;
45344;SDS011;31078;48.304;11.896;2022-09-21T10:28:24;9.82;;;2.15;;
45344;SDS011;31078;48.304;11.896;2022-09-21T10:31:06;7.65;;;1.63;;
45344;SDS011;31078;48.304;11.896;2022-09-21T10:33:46;9.20;;;1.83;;
45344;SDS011;31078;48.304;11.896;2022-09-21T10:36:25;15.85;;;2.75;;
45344;SDS011;31078;48.304;11.896;2022-09-21T10:38:54;9.98;;;2.00;;
45344;SDS011;31078;48.304;11.896;2022-09-21T10:41:22;6.80;;;1.48;;
45344;SDS011;31078;48.304;11.896;2022-09-21T10:43:50;5.05;;;0.93;;
45344;SDS011;31078;48.304;11.896;2022-09-21T10:46:30;7.45;;;1.42;;
45344;SDS011;31078;48.304;11.896;2022-09-21T10:48:58;13.00;;;2.55;;
45344;SDS011;31078;48.304;11.896;2022-09-21T10:51:25;7.97;;;1.63;;
45344;SDS011;31078;48.304;11.896;2022-09-21T10:53:55;7.55;;;1.67;;
45344;SDS011;31078;48.304;11.896;2022-09-21T10:56:22;7.55;;;1.58;;
45344;SDS011;31078;48.304;11.896;2022-09-21T10:59:11;9.23;;;1.83;;
45344;SDS011;31078;48.304;11.896;2022-09-21T11:01:46;7.05;;;1.40;;
45344;SDS011;31078;48.304;11.896;2022-09-21T11:04:15;6.95;;;1.42;;
45344;SDS011;31078;48.304;11.896;2022-09-21T11:06:48;6.53;;;1.38;;
45344;SDS011;31078;48.304;11.896;2022-09-21T11:09:21;8.25;;;1.63;;
45344;SDS011;31078;48.304;11.896;2022-09-21T11:11:52;7.63;;;1.60;;
45344;SDS011;31078;48.304;11.896;2022-09-21T11:14:32;8.93;;;1.83;;
45344;SDS011;31078;48.304;11.896;2022-09-21T11:17:08;9.05;;;1.75;;
45344;SDS011;31078;48.304;11.896;2022-09-21T11:19:43;8.00;;;1.45;;
45344;SDS011;31078;48.304;11.896;2022-09-21T11:22:18;9.38;;;1.80;;
45344;SDS011;31078;48.304;11.896;2022-09-21T11:24:52;10.18;;;1.73;;
45344;SDS011;31078;48.304;11.896;2022-09-21T11:27:27;7.75;;;1.33;;
45344;SDS011;31078;48.304;11.896;2022-09-21T11:30:03;9.38;;;1.77;;
45344;SDS011;31078;48.304;11.896;2022-09-21T11:32:40;15.18;;;2.78;;
45344;SDS011;31078;48.304;11.896;2022-09-21T11:35:29;8.07;;;1.45;;
45344;SDS011;31078;48.304;11.896;2022-09-21T11:38:08;9.55;;;1.70;;
45344;SDS011;31078;48.304;11.896;2022-09-21T11:40:41;16.38;;;2.60;;
45344;SDS011;31078;48.304;11.896;2022-09-21T11:43:29;8.48;;;1.58;;
45344;SDS011;31078;48.304;11.896;2022-09-21T11:46:08;10.13;;;2.15;;
45344;SDS011;31078;48.304;11.896;2022-09-21T11:48:52;10.18;;;1.80;;
45344;SDS011;31078;48.304;11.896;2022-09-21T11:51:33;6.45;;;1.63;;
45344;SDS011;31078;48.304;11.896;2022-09-21T11:54:15;11.75;;;2.17;;
45344;SDS011;31078;48.304;11.896;2022-09-21T11:57:10;11.45;;;1.90;;
45344;SDS011;31078;48.304;11.896;2022-09-21T12:02:57;11.05;;;1.83;;
45344;SDS011;31078;48.304;11.896;2022-09-21T12:05:50;10.07;;;1.60;;
45344;SDS011;31078;48.304;11.896;2022-09-21T12:08:37;15.05;;;2.45;;
45344;SDS011;31078;48.304;11.896;2022-09-21T12:11:16;19.80;;;3.35;;
45344;SDS011;31078;48.304;11.896;2022-09-21T12:13:53;6.05;;;1.50;;
45344;SDS011;31078;48.304;11.896;2022-09-21T12:16:33;5.35;;;1.48;;
45344;SDS011;31078;48.304;11.896;2022-09-21T12:19:08;4.57;;;1.13;;
45344;SDS011;31078;48.304;11.896;2022-09-21T12:21:39;7.93;;;1.58;;
45344;SDS011;31078;48.304;11.896;2022-09-21T12:24:12;11.48;;;2.30;;
45344;SDS011;31078;48.304;11.896;2022-09-21T12:26:50;10.80;;;2.10;;
45344;SDS011;31078;48.304;11.896;2022-09-21T12:29:21;12.02;;;2.35;;
45344;SDS011;31078;48.304;11.896;2022-09-21T12:31:55;13.00;;;2.33;;
45344;SDS011;31078;48.304;11.896;2022-09-21T12:34:29;8.88;;;1.80;;
45344;SDS011;31078;48.304;11.896;2022-09-21T12:37:05;8.82;;;1.83;;
45344;SDS011;31078;48.304;11.896;2022-09-21T12:39:40;5.07;;;1.48;;
45344;SDS011;31078;48.304;11.896;2022-09-21T12:42:16;10.85;;;2.03;;
45344;SDS011;31078;48.304;11.896;2022-09-21T12:44:51;6.22;;;1.30;;
45344;SDS011;31078;48.304;11.896;2022-09-21T12:47:24;9.65;;;1.90;;
45344;SDS011;31078;48.304;11.896;2022-09-21T12:50:01;6.53;;;1.52;;
45344;SDS011;31078;48.304;11.896;2022-09-21T12:52:34;5.93;;;1.30;;
45344;SDS011;31078;48.304;11.896;2022-09-21T12:55:06;7.00;;;1.45;;
45344;SDS011;31078;48.304;11.896;2022-09-21T12:57:51;7.07;;;1.60;;
45344;SDS011;31078;48.304;11.896;2022-09-21T13:00:23;7.50;;;1.60;;
45344;SDS011;31078;48.304;11.896;2022-09-21T13:02:57;4.72;;;1.20;;
45344;SDS011;31078;48.304;11.896;2022-09-21T13:05:34;7.35;;;1.40;;
45344;SDS011;31078;48.304;11.896;2022-09-21T13:08:10;8.55;;;1.67;;
45344;SDS011;31078;48.304;11.896;2022-09-21T13:10:41;6.50;;;1.52;;
45344;SDS011;31078;48.304;11.896;2022-09-21T13:13:16;11.40;;;2.17;;
45344;SDS011;31078;48.304;11.896;2022-09-21T13:15:48;7.70;;;1.55;;
45344;SDS011;31078;48.304;11.896;2022-09-21T13:18:18;12.82;;;2.53;;
45344;SDS011;31078;48.304;11.896;2022-09-21T13:20:52;11.07;;;1.90;;
45344;SDS011;31078;48.304;11.896;2022-09-21T13:23:24;6.07;;;1.45;;
45344;SDS011;31078;48.304;11.896;2022-09-21T13:26:00;9.32;;;1.80;;
45344;SDS011;31078;48.304;11.896;2022-09-21T13:28:40;8.10;;;1.77;;
45344;SDS011;31078;48.304;11.896;2022-09-21T13:31:28;8.10;;;1.77;;
45344;SDS011;31078;48.304;11.896;2022-09-21T13:34:18;7.80;;;1.55;;
45344;SDS011;31078;48.304;11.896;2022-09-21T13:49:26;5.47;;;1.30;;
45344;SDS011;31078;48.304;11.896;2022-09-21T13:51:58;8.45;;;1.73;;
45344;SDS011;31078;48.304;11.896;2022-09-21T13:54:30;7.53;;;1.60;;
45344;SDS011;31078;48.304;11.896;2022-09-21T13:57:01;9.25;;;1.85;;
45344;SDS011;31078;48.304;11.896;2022-09-21T13:59:31;9.38;;;1.77;;
45344;SDS011;31078;48.304;11.896;2022-09-21T14:01:59;8.40;;;2.13;;
45344;SDS011;31078;48.304;11.896;2022-09-21T14:04:28;12.05;;;2.50;;
45344;SDS011;31078;48.304;11.896;2022-09-21T14:09:30;8.40;;;2.20;;
45344;SDS011;31078;48.304;11.896;2022-09-21T14:12:05;9.40;;;1.95;;
45344;SDS011;31078;48.304;11.896;2022-09-21T14:14:36;9.63;;;1.58;;
45344;SDS011;31078;48.304;11.896;2022-09-21T14:17:16;14.70;;;2.42;;
45344;SDS011;31078;48.304;11.896;2022-09-21T14:20:02;5.72;;;1.38;;
45344;SDS011;31078;48.304;11.896;2022-09-21T14:22:32;9.52;;;1.77;;
45344;SDS011;31078;48.304;11.896;2022-09-21T14:25:23;5.75;;;1.48;;
45344;SDS011;31078;48.304;11.896;2022-09-21T14:28:03;8.97;;;1.77;;
45344;SDS011;31078;48.304;11.896;2022-09-21T14:30:37;8.93;;;1.90;;
45344;SDS011;31078;48.304;11.896;2022-09-21T14:35:55;9.98;;;1.67;;
45344;SDS011;31078;48.304;11.896;2022-09-21T14:38:27;8.93;;;1.85;;
45344;SDS011;31078;48.304;11.896;2022-09-21T14:40:58;7.15;;;1.40;;
45344;SDS011;31078;48.304;11.896;2022-09-21T14:43:29;14.80;;;2.53;;
45344;SDS011;31078;48.304;11.896;2022-09-21T14:46:02;4.70;;;1.20;;
45344;SDS011;31078;48.304;11.896;2022-09-21T14:48:48;7.97;;;1.70;;
45344;SDS011;31078;48.304;11.896;2022-09-21T14:51:27;9.85;;;1.85;;
45344;SDS011;31078;48.304;11.896;2022-09-21T14:57:02;5.50;;;1.30;;
45344;SDS011;31078;48.304;11.896;2022-09-21T14:59:46;6.32;;;1.77;;
45344;SDS011;31078;48.304;11.896;2022-09-21T15:02:23;10.25;;;2.05;;
45344;SDS011;31078;48.304;11.896;2022-09-21T15:04:54;10.82;;;2.35;;
45344;SDS011;31078;48.304;11.896;2022-09-21T15:07:36;16.48;;;2.80;;
45344;SDS011;31078;48.304;11.896;2022-09-21T15:10:28;18.90;;;3.03;;
45344;SDS011;31078;48.304;11.896;2022-09-21T15:13:35;11.82;;;2.22;;
45344;SDS011;31078;48.304;11.896;2022-09-21T15:18:58;13.88;;;2.30;;
45344;SDS011;31078;48.304;11.896;2022-09-21T15:21:29;11.93;;;2.45;;
45344;SDS011;31078;48.304;11.896;2022-09-21T15:23:57;9.13;;;2.05;;
45344;SDS011;31078;48.304;11.896;2022-09-21T15:26:27;7.47;;;1.88;;
45344;SDS011;31078;48.304;11.896;2022-09-21T15:29:00;13.10;;;2.40;;